Clemson, South Carolina
Current Conditions -  °F | °C
As of 12:54 AM on Tuesday 21 Oct 2014 (Local Time) from KCEU Reporting Station
Clear Clear  
Wind Chill: 16°   Ceiling: Unl
Heat Index: 16°   Visibility: 10mi
Dew Point: 10°   Wind: 6mph
Humidity: 69%   Direction: 250°WSW
Pressure: 30"   Gusts: NA
Location:  34.68°N, 82.84°W
Report Text: KCEU 210454Z AUTO 25005KT 10SM CLR 16/10 A3000 RMK AO2 SLP154 T01560100 402220083
Loading
Personal Weather Stations






























Interactive Weather Map
Tropical Storm Tracking
New forecast layout! Learn more

10-Day Weather Forecast

Advertisements
Track Severe Weather on mobile